Terminal Aerodrome Forecast
Issued by NWS Glasgow, MT

Home | Current Version | Previous Version | Text Only | Print | Product List | Glossary On
Versions: 1 2 3 4 5 6 7 8 9 10 11 12 13 14 15
728
FTUS45 KGGW 250520
TAFGGW
TAF
KGGW 250520Z 2506/2606 29009KT P6SM BKN090
     FM251400 14004KT P6SM SCT090 WS020/28025KT
     FM251800 24007KT P6SM SCT080
     FM260100 20010KT P6SM BKN070
     FM260300 22011KT P6SM BKN080 WS020/24040KT=

USA.gov is the U.S. government's official web portal to all federal, state and local government web resources and services.